Time;durP1;ratioP1;P1;durP2;ratioP2;P2;SDS_P1;SDS_P2;PMS_P1;PMS_P2;Temp;Humidity;BMP_temperature;BMP_pressure;BME280_temperature;BME280_humidity;BME280_pressure;Samples;Min_cycle;Max_cycle;Signal;HPM_P1;HPM_P2
2023/11/15 00:00:11;;;;;;;13.05;2.17;;;10.60;99.90;;;;;;6208894;23;20096;-75
2023/11/15 00:02:37;;;;;;;13.63;1.77;;;10.60;99.90;;;;;;6209907;23;20020;-75
2023/11/15 00:05:03;;;;;;;14.27;2.00;;;10.60;99.90;;;;;;6212090;23;20059;-75
2023/11/15 00:07:32;;;;;;;16.92;2.88;;;10.60;99.90;;;;;;6208605;23;20036;-76
2023/11/15 00:09:58;;;;;;;10.73;2.65;;;10.60;99.90;;;;;;6209521;23;20047;-76
2023/11/15 00:12:27;;;;;;;14.77;2.03;;;10.60;99.90;;;;;;6209484;23;20024;-76
2023/11/15 00:14:52;;;;;;;9.15;2.20;;;10.70;99.90;;;;;;6211180;23;20005;-75
2023/11/15 00:17:19;;;;;;;9.27;2.20;;;10.70;99.90;;;;;;6207689;23;20469;-75
2023/11/15 00:19:45;;;;;;;13.85;1.80;;;10.70;99.90;;;;;;6209667;23;20028;-75
2023/11/15 00:22:17;;;;;;;12.70;1.92;;;10.70;99.90;;;;;;6208528;23;20016;-76
2023/11/15 00:24:43;;;;;;;15.52;3.15;;;10.70;99.90;;;;;;6211323;23;20009;-76
2023/11/15 00:27:11;;;;;;;16.25;1.92;;;10.70;99.90;;;;;;6208431;23;20009;-75
2023/11/15 00:29:37;;;;;;;17.25;3.17;;;10.70;99.90;;;;;;6211514;23;20013;-76
2023/11/15 00:32:04;;;;;;;15.15;1.88;;;10.70;99.90;;;;;;6209261;23;20016;-75
2023/11/15 00:34:30;;;;;;;13.30;1.38;;;10.80;99.90;;;;;;6208959;23;20443;-75
2023/11/15 00:36:56;;;;;;;20.83;1.83;;;10.70;99.90;;;;;;6209064;23;20554;-77
2023/11/15 00:39:22;;;;;;;12.57;1.55;;;10.70;99.90;;;;;;6208404;23;20028;-75
2023/11/15 00:41:47;;;;;;;14.02;2.35;;;10.80;99.90;;;;;;6210140;23;20371;-76
2023/11/15 00:44:17;;;;;;;12.75;2.63;;;10.80;99.90;;;;;;6208830;23;20347;-76
2023/11/15 00:46:42;;;;;;;16.48;1.33;;;10.80;99.90;;;;;;6209417;23;20002;-77
2023/11/15 00:49:08;;;;;;;12.40;2.10;;;10.80;99.90;;;;;;6209232;23;20453;-75
2023/11/15 00:51:34;;;;;;;13.35;3.35;;;10.80;99.90;;;;;;6209314;23;20012;-77
2023/11/15 00:53:59;;;;;;;14.25;3.25;;;10.90;99.90;;;;;;6210057;23;20009;-76
2023/11/15 00:56:26;;;;;;;17.80;3.55;;;10.90;99.90;;;;;;6212269;23;20067;-75
2023/11/15 00:58:51;;;;;;;14.15;1.98;;;10.90;99.90;;;;;;6212429;23;20016;-75
2023/11/15 01:01:17;;;;;;;13.70;1.98;;;11.00;99.90;;;;;;6210865;23;20016;-76
2023/11/15 01:03:55;;;;;;;8.65;1.30;;;11.00;99.90;;;;;;6213331;23;20013;-76
2023/11/15 01:06:27;;;;;;;22.00;2.03;;;11.00;99.90;;;;;;6211772;23;20063;-75
2023/11/15 01:08:57;;;;;;;12.82;1.20;;;10.80;99.90;;;;;;6211485;23;20012;-76
2023/11/15 01:11:25;;;;;;;13.30;2.35;;;10.80;99.90;;;;;;6208606;23;20032;-75
2023/11/15 01:13:50;;;;;;;14.10;2.15;;;10.80;99.90;;;;;;6207614;23;20012;-76
2023/11/15 01:16:22;;;;;;;10.55;1.67;;;10.70;99.90;;;;;;6207854;23;20009;-77
2023/11/15 01:18:48;;;;;;;11.20;1.70;;;10.70;99.90;;;;;;6208083;23;20066;-76
2023/11/15 01:21:14;;;;;;;14.57;2.17;;;10.60;99.90;;;;;;6206080;23;20476;-75
2023/11/15 01:23:40;;;;;;;11.00;1.85;;;10.60;99.90;;;;;;6207821;23;20016;-78
2023/11/15 01:26:06;;;;;;;9.13;1.60;;;10.60;99.90;;;;;;6207561;23;20009;-78
2023/11/15 01:28:31;;;;;;;11.55;1.80;;;10.60;99.90;;;;;;6206419;23;20341;-78
2023/11/15 01:30:57;;;;;;;15.20;1.77;;;10.60;99.90;;;;;;6208067;23;20013;-76
2023/11/15 01:33:23;;;;;;;16.95;1.73;;;10.60;99.90;;;;;;6206399;23;20043;-76
2023/11/15 01:35:48;;;;;;;21.35;2.72;;;10.60;99.90;;;;;;6207227;23;20324;-77
2023/11/15 01:38:15;;;;;;;17.25;1.98;;;10.60;99.90;;;;;;6206088;23;20023;-77
2023/11/15 01:40:42;;;;;;;12.07;2.65;;;10.60;99.90;;;;;;6207773;23;20088;-76
2023/11/15 01:43:10;;;;;;;12.90;2.63;;;10.60;99.90;;;;;;6206189;23;20442;-77
2023/11/15 01:45:36;;;;;;;13.70;1.60;;;10.60;99.90;;;;;;6207368;23;20008;-76
2023/11/15 01:48:03;;;;;;;20.42;2.08;;;10.60;99.90;;;;;;6207979;23;20058;-77
2023/11/15 01:50:29;;;;;;;8.07;1.33;;;10.60;99.90;;;;;;6206463;23;20015;-77
2023/11/15 01:52:55;;;;;;;19.45;2.33;;;10.60;99.90;;;;;;6209084;23;20040;-77
2023/11/15 01:55:21;;;;;;;13.55;2.15;;;10.60;99.90;;;;;;6206049;23;20012;-76
2023/11/15 01:57:48;;;;;;;13.27;2.38;;;10.60;99.90;;;;;;6209068;23;20091;-77
2023/11/15 02:00:15;;;;;;;19.17;2.15;;;10.60;99.90;;;;;;6206173;23;20104;-77
2023/11/15 02:02:42;;;;;;;14.05;1.52;;;10.60;99.90;;;;;;6207263;23;20352;-77
2023/11/15 02:05:13;;;;;;;12.63;1.70;;;10.60;99.90;;;;;;6206289;23;20147;-78
2023/11/15 02:07:39;;;;;;;9.65;1.10;;;10.60;99.90;;;;;;6207403;23;20378;-76
2023/11/15 02:10:06;;;;;;;9.13;1.70;;;10.60;99.90;;;;;;6207373;23;20016;-77
2023/11/15 02:12:33;;;;;;;8.45;1.70;;;10.60;99.90;;;;;;6206137;23;20016;-78
2023/11/15 02:14:59;;;;;;;13.13;2.17;;;10.60;99.90;;;;;;6206929;23;20459;-77
2023/11/15 02:17:25;;;;;;;16.88;1.70;;;10.60;99.90;;;;;;6207269;23;20017;-77
2023/11/15 02:19:51;;;;;;;12.25;1.17;;;10.60;99.90;;;;;;6207014;23;20005;-77
2023/11/15 02:22:18;;;;;;;8.32;1.13;;;10.60;99.90;;;;;;6206371;23;20017;-77
2023/11/15 02:24:44;;;;;;;5.95;1.25;;;10.60;99.90;;;;;;6209882;23;20058;-75
2023/11/15 02:27:10;;;;;;;18.05;2.03;;;10.60;99.90;;;;;;6208320;23;20328;-76
2023/11/15 02:29:36;;;;;;;21.10;1.83;;;10.60;99.90;;;;;;6210699;23;19997;-76
2023/11/15 02:32:02;;;;;;;13.75;1.98;;;10.60;99.90;;;;;;6212662;23;20027;-77
2023/11/15 02:34:27;;;;;;;8.98;2.45;;;10.70;99.90;;;;;;6208494;23;20013;-76
2023/11/15 02:36:53;;;;;;;10.60;2.55;;;10.70;99.90;;;;;;6209912;23;20427;-76
2023/11/15 02:39:19;;;;;;;13.15;1.45;;;10.70;99.90;;;;;;6208506;23;20104;-76
2023/11/15 02:41:45;;;;;;;7.88;1.10;;;10.70;99.90;;;;;;6210500;23;20019;-77
2023/11/15 02:44:10;;;;;;;9.55;1.40;;;10.70;99.90;;;;;;6208087;23;20084;-76
2023/11/15 02:46:37;;;;;;;13.57;2.17;;;10.70;99.90;;;;;;6211480;23;20020;-76
2023/11/15 02:49:03;;;;;;;12.32;1.80;;;10.80;99.90;;;;;;6211327;23;20058;-76
2023/11/15 02:51:29;;;;;;;11.40;1.60;;;10.70;99.90;;;;;;6207942;23;20753;-77
2023/11/15 02:53:54;;;;;;;8.30;1.60;;;10.80;99.90;;;;;;6208749;23;20042;-77
2023/11/15 02:56:20;;;;;;;12.80;2.33;;;10.80;99.90;;;;;;6207174;23;20017;-76
2023/11/15 02:58:46;;;;;;;7.30;1.00;;;10.70;99.90;;;;;;6208554;23;20143;-76
2023/11/15 03:01:12;;;;;;;10.52;1.77;;;10.70;99.90;;;;;;6207914;23;20044;-76
2023/11/15 03:03:42;;;;;;;10.07;1.92;;;10.80;99.90;;;;;;6209313;23;20681;-76
2023/11/15 03:06:07;;;;;;;13.30;2.53;;;10.80;99.90;;;;;;6205427;23;20099;-76
2023/11/15 03:08:33;;;;;;;14.23;0.95;;;10.80;99.90;;;;;;6209051;23;20591;-76
2023/11/15 03:10:59;;;;;;;9.27;1.13;;;10.80;99.90;;;;;;6206719;23;20036;-77
2023/11/15 03:13:25;;;;;;;14.48;1.48;;;10.80;99.90;;;;;;6206007;23;20119;-77
2023/11/15 03:15:51;;;;;;;22.25;2.95;;;10.70;99.90;;;;;;6206735;23;20391;-77
2023/11/15 03:18:19;;;;;;;9.60;1.60;;;10.80;99.90;;;;;;6206104;23;20056;-76
2023/11/15 03:20:45;;;;;;;8.07;1.40;;;10.80;99.90;;;;;;6206760;23;20013;-77
2023/11/15 03:23:11;;;;;;;12.95;2.22;;;10.70;99.90;;;;;;6205927;23;20070;-77
2023/11/15 03:25:38;;;;;;;15.10;2.22;;;10.80;99.90;;;;;;6207629;23;20015;-76
2023/11/15 03:28:05;;;;;;;12.10;1.88;;;10.80;99.90;;;;;;6209472;23;20012;-76
2023/11/15 03:30:31;;;;;;;15.93;1.95;;;10.70;99.90;;;;;;6207674;23;20019;-79
2023/11/15 03:32:56;;;;;;;17.98;1.73;;;10.70;99.90;;;;;;6210467;23;20008;-76
2023/11/15 03:35:22;;;;;;;9.65;1.67;;;10.70;99.90;;;;;;6209237;23;20013;-76
2023/11/15 03:37:49;;;;;;;9.75;2.17;;;10.70;99.90;;;;;;6208199;23;20020;-77
2023/11/15 03:40:15;;;;;;;10.40;1.35;;;10.70;99.90;;;;;;6207248;23;20124;-77
2023/11/15 03:42:41;;;;;;;16.27;2.38;;;10.70;99.90;;;;;;6210540;23;20439;-76
2023/11/15 03:45:09;;;;;;;16.58;2.60;;;10.70;99.90;;;;;;6208808;23;20015;-76
2023/11/15 03:47:36;;;;;;;10.25;2.38;;;10.70;99.90;;;;;;6209460;23;20017;-76
2023/11/15 03:50:04;;;;;;;13.45;1.90;;;10.70;99.90;;;;;;6208700;23;20443;-77
2023/11/15 03:52:29;;;;;;;10.98;1.40;;;10.70;99.90;;;;;;6207480;23;20457;-76
2023/11/15 03:54:55;;;;;;;17.42;2.22;;;10.70;99.90;;;;;;6208679;23;20016;-76
2023/11/15 03:57:21;;;;;;;10.73;1.40;;;10.70;99.90;;;;;;6207205;23;20513;-77
2023/11/15 03:59:47;;;;;;;11.07;2.17;;;10.70;99.90;;;;;;6208415;23;20013;-76
2023/11/15 04:02:12;;;;;;;13.50;2.47;;;10.70;99.90;;;;;;6209082;23;20458;-76
2023/11/15 04:04:38;;;;;;;10.05;2.25;;;10.70;99.90;;;;;;6208591;23;20008;-77
2023/11/15 04:07:04;;;;;;;13.55;2.08;;;10.70;99.90;;;;;;6208501;23;20000;-77
2023/11/15 04:09:33;;;;;;;16.83;1.83;;;10.70;99.90;;;;;;6207487;23;20003;-76
2023/11/15 04:11:58;;;;;;;16.63;1.38;;;10.70;99.90;;;;;;6208418;23;20525;-76
2023/11/15 04:14:25;;;;;;;12.85;1.77;;;10.70;99.90;;;;;;6207577;23;20025;-76
2023/11/15 04:16:51;;;;;;;12.32;1.67;;;10.70;99.90;;;;;;6207505;23;20015;-79
2023/11/15 04:19:20;;;;;;;9.52;1.58;;;10.80;99.90;;;;;;6207203;23;20016;-77
2023/11/15 04:21:46;;;;;;;5.63;1.35;;;10.70;99.90;;;;;;6208484;23;20429;-77
2023/11/15 04:24:12;;;;;;;5.63;1.42;;;10.70;99.90;;;;;;6206943;23;20005;-76
2023/11/15 04:26:38;;;;;;;12.30;1.20;;;10.70;99.90;;;;;;6208513;23;20028;-78
2023/11/15 04:29:04;;;;;;;9.15;1.40;;;10.70;99.90;;;;;;6208949;23;20004;-77
2023/11/15 04:31:29;;;;;;;8.75;1.25;;;10.70;99.90;;;;;;6206728;23;20001;-77
2023/11/15 04:33:55;;;;;;;6.90;1.10;;;10.70;99.90;;;;;;6209834;23;20068;-77
2023/11/15 04:36:21;;;;;;;14.02;2.10;;;10.70;99.90;;;;;;6206670;23;20020;-76
2023/11/15 04:38:49;;;;;;;7.82;1.23;;;10.70;99.90;;;;;;6209847;23;20020;-76
2023/11/15 04:41:15;;;;;;;7.65;0.80;;;10.70;99.90;;;;;;6207417;23;20016;-76
2023/11/15 04:43:40;;;;;;;11.25;1.25;;;10.70;99.90;;;;;;6208235;23;20011;-77
2023/11/15 04:46:06;;;;;;;10.52;1.88;;;10.70;99.90;;;;;;6207778;23;20011;-77
2023/11/15 04:48:32;;;;;;;15.85;1.65;;;10.70;99.90;;;;;;6207014;23;20008;-76
2023/11/15 04:51:00;;;;;;;11.45;1.83;;;10.70;99.90;;;;;;6208983;23;20012;-78
2023/11/15 04:53:25;;;;;;;14.27;1.55;;;10.70;99.90;;;;;;6207364;23;20025;-78
2023/11/15 04:55:51;;;;;;;6.97;1.35;;;10.70;99.90;;;;;;6208742;23;20039;-76
2023/11/15 04:58:17;;;;;;;9.65;1.92;;;10.70;99.90;;;;;;6208924;23;20457;-76
2023/11/15 05:00:42;;;;;;;5.70;0.75;;;10.80;99.90;;;;;;6212249;23;20019;-76
2023/11/15 05:03:10;;;;;;;11.27;1.90;;;10.70;99.90;;;;;;6208576;23;20028;-76
2023/11/15 05:05:36;;;;;;;6.30;1.00;;;10.70;99.90;;;;;;6210263;23;20008;-78
2023/11/15 05:08:02;;;;;;;4.72;1.02;;;10.60;99.90;;;;;;6210459;23;20316;-76
2023/11/15 05:10:29;;;;;;;10.43;1.73;;;10.70;99.90;;;;;;6208720;23;20023;-76
2023/11/15 05:12:54;;;;;;;8.70;1.40;;;10.70;99.90;;;;;;6210350;23;20450;-76
2023/11/15 05:15:20;;;;;;;6.15;1.02;;;10.70;99.90;;;;;;6209455;23;20012;-77
2023/11/15 05:17:45;;;;;;;16.55;2.47;;;10.70;99.90;;;;;;6209703;23;20327;-77
2023/11/15 05:20:11;;;;;;;11.65;1.35;;;10.70;99.90;;;;;;6210454;23;20028;-75
2023/11/15 05:22:37;;;;;;;9.88;0.98;;;10.70;99.90;;;;;;6213132;23;20005;-76
2023/11/15 05:25:06;;;;;;;10.40;1.15;;;10.80;99.90;;;;;;6211468;23;20114;-75
2023/11/15 05:27:33;;;;;;;7.07;1.17;;;10.70;99.90;;;;;;6209029;23;20193;-75
2023/11/15 05:29:58;;;;;;;11.15;1.02;;;10.80;99.90;;;;;;6209571;23;20009;-75
2023/11/15 05:32:24;;;;;;;9.95;1.52;;;10.70;99.90;;;;;;6209129;23;20035;-76
2023/11/15 05:34:49;;;;;;;8.27;1.00;;;10.80;99.90;;;;;;6211107;23;20004;-77
2023/11/15 05:37:15;;;;;;;10.55;1.00;;;10.80;99.90;;;;;;6208923;23;20443;-76
2023/11/15 05:39:41;;;;;;;8.93;1.23;;;10.70;99.90;;;;;;6211011;23;20036;-75
2023/11/15 05:42:09;;;;;;;7.82;1.52;;;10.70;99.90;;;;;;6209821;23;20533;-74
2023/11/15 05:44:35;;;;;;;10.57;1.98;;;10.70;99.90;;;;;;6211111;23;20009;-76
2023/11/15 05:47:02;;;;;;;10.43;1.10;;;10.70;99.90;;;;;;6209711;23;20009;-76
2023/11/15 05:49:27;;;;;;;7.43;0.80;;;10.70;99.90;;;;;;6209717;23;22191;-75
2023/11/15 05:51:54;;;;;;;9.43;1.75;;;10.70;99.90;;;;;;6207234;23;20454;-76
2023/11/15 05:54:19;;;;;;;7.93;1.20;;;10.70;99.90;;;;;;6205520;23;20005;-75
2023/11/15 05:56:48;;;;;;;14.32;2.95;;;10.70;99.90;;;;;;6206906;23;20036;-76
2023/11/15 05:59:14;;;;;;;11.30;1.90;;;10.60;99.90;;;;;;6204985;23;20020;-76
2023/11/15 06:01:40;;;;;;;10.48;1.73;;;10.60;99.90;;;;;;6206587;23;20005;-76
2023/11/15 06:04:06;;;;;;;12.65;2.00;;;10.60;99.90;;;;;;6205716;23;20023;-77
2023/11/15 06:06:31;;;;;;;7.90;1.25;;;10.60;99.90;;;;;;6206822;23;20087;-77
2023/11/15 06:08:58;;;;;;;6.50;0.95;;;10.60;99.90;;;;;;6206131;23;20012;-75
2023/11/15 06:11:23;;;;;;;16.48;2.40;;;10.60;99.90;;;;;;6204746;23;20478;-77
2023/11/15 06:13:49;;;;;;;14.10;1.73;;;10.60;99.90;;;;;;6205686;23;20032;-75
2023/11/15 06:16:14;;;;;;;8.80;0.98;;;10.50;99.90;;;;;;6204871;23;20089;-76
2023/11/15 06:18:42;;;;;;;6.70;1.33;;;10.50;99.90;;;;;;6206089;23;20023;-76
2023/11/15 06:21:07;;;;;;;7.75;1.10;;;10.50;99.90;;;;;;6208063;23;20349;-78
2023/11/15 06:23:34;;;;;;;7.57;1.23;;;10.40;99.90;;;;;;6205851;23;20012;-77
2023/11/15 06:26:00;;;;;;;9.02;1.52;;;10.40;99.90;;;;;;6207939;23;20024;-76
2023/11/15 06:28:25;;;;;;;5.60;1.00;;;10.50;99.90;;;;;;6204390;23;20446;-77
2023/11/15 06:30:51;;;;;;;6.75;0.88;;;10.50;99.90;;;;;;6205673;23;20013;-77
2023/11/15 06:33:17;;;;;;;6.88;1.27;;;10.50;99.90;;;;;;6206752;23;20020;-76
2023/11/15 06:35:44;;;;;;;5.75;1.15;;;10.50;99.90;;;;;;6205745;23;20008;-77
2023/11/15 06:38:10;;;;;;;5.43;1.20;;;10.50;99.90;;;;;;6204689;23;20066;-78
2023/11/15 06:40:35;;;;;;;8.10;0.90;;;10.40;99.90;;;;;;6205798;23;20506;-77
2023/11/15 06:43:01;;;;;;;14.38;1.52;;;10.40;99.90;;;;;;6206301;23;20015;-77
2023/11/15 06:45:27;;;;;;;14.43;1.63;;;10.40;99.90;;;;;;6206933;23;20039;-78
2023/11/15 06:47:53;;;;;;;9.00;1.00;;;10.40;99.90;;;;;;6207422;23;20009;-77
2023/11/15 06:50:20;;;;;;;8.75;1.25;;;10.40;99.90;;;;;;6205477;23;20391;-76
2023/11/15 06:52:45;;;;;;;14.57;2.00;;;10.40;99.90;;;;;;6206976;23;20013;-78
2023/11/15 06:55:11;;;;;;;4.68;0.90;;;10.30;99.90;;;;;;6207413;23;20112;-76
2023/11/15 06:57:38;;;;;;;8.18;1.48;;;10.30;99.90;;;;;;6206364;23;20112;-76
2023/11/15 07:00:08;;;;;;;8.93;1.40;;;10.30;99.90;;;;;;6206184;23;20040;-78
2023/11/15 07:02:35;;;;;;;11.85;1.45;;;10.20;99.90;;;;;;6208108;23;20340;-78
2023/11/15 07:05:01;;;;;;;11.73;1.20;;;10.10;99.90;;;;;;6208064;23;20008;-78
2023/11/15 07:07:27;;;;;;;14.52;1.00;;;10.10;99.90;;;;;;6207239;23;20439;-78
2023/11/15 07:09:54;;;;;;;9.50;1.00;;;10.00;99.90;;;;;;6209220;23;20024;-77
2023/11/15 07:12:20;;;;;;;8.55;0.98;;;10.00;99.90;;;;;;6210677;23;20099;-77
2023/11/15 07:14:47;;;;;;;12.55;1.40;;;10.00;99.90;;;;;;6209912;23;20036;-77
2023/11/15 07:17:14;;;;;;;9.13;1.45;;;9.90;99.90;;;;;;6208179;23;20004;-78
2023/11/15 07:19:40;;;;;;;10.07;0.98;;;10.00;99.90;;;;;;6209085;23;20005;-78
2023/11/15 07:22:05;;;;;;;11.00;1.92;;;10.00;99.90;;;;;;6209843;23;20009;-78
2023/11/15 07:24:38;;;;;;;9.57;1.80;;;10.00;99.90;;;;;;6207778;23;20393;-76
2023/11/15 07:27:05;;;;;;;9.77;1.85;;;10.00;99.90;;;;;;6209191;23;20027;-76
2023/11/15 07:29:33;;;;;;;12.68;1.23;;;10.00;99.90;;;;;;6208713;23;20040;-76
2023/11/15 07:32:01;;;;;;;17.48;1.20;;;9.90;99.90;;;;;;6209277;23;20005;-78
2023/11/15 07:34:28;;;;;;;8.55;1.27;;;9.90;99.90;;;;;;6207520;23;20030;-76
2023/11/15 07:36:55;;;;;;;13.57;1.05;;;9.90;99.90;;;;;;6208914;23;20473;-76
2023/11/15 07:39:21;;;;;;;12.52;2.35;;;9.90;99.90;;;;;;6207539;23;20040;-77
2023/11/15 07:41:47;;;;;;;5.50;1.58;;;9.90;99.90;;;;;;6209604;23;20013;-76
2023/11/15 07:44:17;;;;;;;8.60;0.90;;;9.90;99.90;;;;;;6207992;23;20105;-77
2023/11/15 07:46:44;;;;;;;7.18;1.00;;;9.90;99.90;;;;;;6209882;23;20009;-77
2023/11/15 07:49:13;;;;;;;7.07;1.20;;;9.90;99.90;;;;;;6210620;23;20776;-78
2023/11/15 07:51:39;;;;;;;8.60;1.33;;;9.90;99.90;;;;;;6211960;23;20000;-77
2023/11/15 07:54:05;;;;;;;12.02;1.50;;;10.00;99.90;;;;;;6210492;23;20324;-78
2023/11/15 07:56:31;;;;;;;8.20;1.30;;;10.00;99.90;;;;;;6202380;23;20009;-76
2023/11/15 07:58:57;;;;;;;15.07;2.05;;;10.10;99.90;;;;;;6205790;23;20031;-76
2023/11/15 08:01:22;;;;;;;8.85;1.52;;;10.30;99.90;;;;;;6207520;23;20637;-76
2023/11/15 08:03:49;;;;;;;9.15;1.55;;;10.30;99.90;;;;;;6209634;23;20083;-77
2023/11/15 08:06:15;;;;;;;17.67;1.13;;;10.30;99.90;;;;;;6209224;23;20024;-77
2023/11/15 08:08:42;;;;;;;14.25;1.52;;;10.30;99.90;;;;;;6209637;23;20012;-76
2023/11/15 08:11:10;;;;;;;11.30;1.58;;;10.40;99.90;;;;;;6209399;23;20032;-77
2023/11/15 08:13:35;;;;;;;8.05;1.30;;;10.40;99.90;;;;;;6208565;23;20050;-76
2023/11/15 08:16:02;;;;;;;12.43;1.25;;;10.50;99.90;;;;;;6210977;23;20447;-76
2023/11/15 08:18:30;;;;;;;8.38;0.93;;;10.50;99.90;;;;;;6210274;23;20063;-77
2023/11/15 08:20:56;;;;;;;15.20;1.92;;;10.50;99.90;;;;;;6211483;23;20032;-77
2023/11/15 08:23:23;;;;;;;14.98;2.00;;;10.60;99.90;;;;;;6209414;23;20009;-76
2023/11/15 08:25:51;;;;;;;7.15;1.08;;;10.60;99.90;;;;;;6208127;23;20096;-77
2023/11/15 08:28:17;;;;;;;11.50;2.00;;;10.70;99.90;;;;;;6208444;23;20019;-78
2023/11/15 08:30:46;;;;;;;9.75;1.30;;;10.70;99.90;;;;;;6208854;23;20025;-75
2023/11/15 08:33:16;;;;;;;11.98;0.90;;;10.70;99.90;;;;;;6205433;23;20016;-75
2023/11/15 08:35:43;;;;;;;14.80;2.33;;;10.70;99.90;;;;;;6207009;23;20020;-74
2023/11/15 08:38:10;;;;;;;10.73;1.27;;;10.80;99.90;;;;;;6206329;23;20012;-76
2023/11/15 08:40:37;;;;;;;10.73;1.40;;;10.80;99.90;;;;;;6208866;23;20075;-74
2023/11/15 08:43:03;;;;;;;10.10;0.88;;;10.90;99.90;;;;;;6206426;23;20012;-76
2023/11/15 08:45:29;;;;;;;4.70;1.27;;;11.00;99.90;;;;;;6204867;23;20012;-77
2023/11/15 08:48:00;;;;;;;11.60;1.27;;;11.00;99.90;;;;;;6205955;23;20014;-75
2023/11/15 08:50:27;;;;;;;8.27;0.90;;;11.00;99.90;;;;;;6208105;23;20129;-76
2023/11/15 08:52:54;;;;;;;11.25;1.58;;;11.10;99.90;;;;;;6205362;23;20012;-77
2023/11/15 08:55:20;;;;;;;11.98;1.92;;;11.10;99.90;;;;;;6207902;23;20004;-73
2023/11/15 08:57:46;;;;;;;8.23;2.42;;;11.00;99.90;;;;;;6207257;23;20011;-78
2023/11/15 09:00:15;;;;;;;9.02;0.57;;;11.00;99.90;;;;;;6208148;23;20100;-75
2023/11/15 09:02:47;;;;;;;1.92;0.25;;;10.80;99.90;;;;;;6209538;23;20338;-76
2023/11/15 09:05:19;;;;;;;2.85;0.40;;;10.70;99.90;;;;;;6210074;23;20013;-75
2023/11/15 09:07:45;;;;;;;6.80;0.95;;;10.60;99.90;;;;;;6212392;23;20005;-78
2023/11/15 09:10:13;;;;;;;3.53;0.50;;;10.60;99.90;;;;;;6210513;23;20009;-76
2023/11/15 09:12:40;;;;;;;8.95;1.15;;;10.70;99.90;;;;;;6210708;23;20016;-76
2023/11/15 09:15:11;;;;;;;9.48;1.45;;;10.80;99.90;;;;;;6208795;23;20068;-74
2023/11/15 09:17:46;;;;;;;10.82;1.35;;;10.80;99.90;;;;;;6208000;23;20014;-75
2023/11/15 09:20:25;;;;;;;11.20;2.47;;;10.90;99.90;;;;;;6207841;23;20392;-75
2023/11/15 09:22:53;;;;;;;11.07;0.90;;;10.90;99.90;;;;;;6209246;23;20009;-75
2023/11/15 09:25:30;;;;;;;17.25;2.13;;;11.00;99.90;;;;;;6206229;23;20255;-75
2023/11/15 09:27:59;;;;;;;11.45;2.20;;;11.00;99.90;;;;;;6210550;23;20477;-76
2023/11/15 09:30:25;;;;;;;11.73;1.95;;;11.00;99.90;;;;;;6209737;23;20441;-78
2023/11/15 09:32:51;;;;;;;12.40;1.23;;;11.10;99.90;;;;;;6211453;23;20082;-76
2023/11/15 09:35:23;;;;;;;12.88;2.33;;;11.10;99.90;;;;;;6207873;23;20079;-76
2023/11/15 09:37:50;;;;;;;15.20;1.52;;;11.10;99.90;;;;;;6208566;23;20009;-76
2023/11/15 09:40:16;;;;;;;12.43;2.22;;;11.20;99.90;;;;;;6207317;23;20036;-75
2023/11/15 09:42:44;;;;;;;7.32;1.25;;;11.30;99.90;;;;;;6206835;23;20023;-74
2023/11/15 09:45:16;;;;;;;11.90;1.33;;;11.40;99.90;;;;;;6206824;23;20027;-76
2023/11/15 09:47:47;;;;;;;6.88;1.10;;;11.40;99.90;;;;;;6208597;23;20004;-78
2023/11/15 09:50:21;;;;;;;6.80;0.95;;;11.50;99.90;;;;;;6208469;23;20020;-77
2023/11/15 09:52:49;;;;;;;8.30;1.00;;;11.50;99.90;;;;;;6208938;23;20028;-75
2023/11/15 09:55:18;;;;;;;11.48;1.45;;;11.40;99.90;;;;;;6207082;23;20013;-75
2023/11/15 09:57:46;;;;;;;9.80;1.80;;;11.40;99.90;;;;;;6207776;23;20442;-75
2023/11/15 10:00:15;;;;;;;9.63;1.20;;;11.50;99.90;;;;;;6206749;23;20044;-75
2023/11/15 10:02:41;;;;;;;9.73;1.05;;;11.50;99.90;;;;;;6208352;23;20059;-77
2023/11/15 10:05:19;;;;;;;6.18;1.25;;;11.60;99.90;;;;;;6208542;23;20469;-76
2023/11/15 10:07:51;;;;;;;12.27;1.67;;;11.70;99.90;;;;;;6210523;22;20011;-76
2023/11/15 10:10:24;;;;;;;9.35;0.95;;;11.80;99.90;;;;;;6209647;23;20047;-77
2023/11/15 10:12:53;;;;;;;10.05;1.92;;;11.80;99.90;;;;;;6210407;23;20009;-76
2023/11/15 10:15:39;;;;;;;9.43;1.38;;;11.90;99.90;;;;;;6208649;23;20028;-76
2023/11/15 10:18:11;;;;;;;11.95;1.30;;;12.10;99.90;;;;;;6207980;23;20005;-74
2023/11/15 10:20:37;;;;;;;9.95;1.60;;;12.20;99.90;;;;;;6206255;23;20088;-74
2023/11/15 10:23:03;;;;;;;9.10;0.93;;;12.10;99.90;;;;;;6207316;23;20021;-75
2023/11/15 10:25:31;;;;;;;8.38;0.90;;;12.10;99.90;;;;;;6206215;23;20020;-75
2023/11/15 10:28:07;;;;;;;11.18;1.23;;;12.20;99.90;;;;;;6208596;23;20023;-74
2023/11/15 10:30:33;;;;;;;20.02;2.28;;;12.10;99.90;;;;;;6206249;23;20729;-74
2023/11/15 10:33:13;;;;;;;10.85;1.00;;;12.20;99.90;;;;;;6209163;23;20651;-75
2023/11/15 10:35:40;;;;;;;9.93;1.07;;;12.20;99.90;;;;;;6206244;23;20458;-75
2023/11/15 10:38:14;;;;;;;9.68;1.10;;;12.30;99.90;;;;;;6207560;23;20603;-75
2023/11/15 10:40:46;;;;;;;7.00;1.67;;;12.40;99.90;;;;;;6206541;23;20005;-74
2023/11/15 10:43:15;;;;;;;8.13;1.40;;;12.50;99.90;;;;;;6207905;23;20073;-75
2023/11/15 10:45:43;;;;;;;9.05;1.58;;;12.50;99.90;;;;;;6207243;23;20009;-76
2023/11/15 10:48:12;;;;;;;5.97;1.23;;;12.50;99.90;;;;;;6208914;23;20342;-75
2023/11/15 10:50:53;;;;;;;7.77;1.20;;;12.60;99.90;;;;;;6206784;23;20001;-76
2023/11/15 10:53:19;;;;;;;5.43;1.10;;;12.60;99.90;;;;;;6205824;23;20248;-75
2023/11/15 10:55:47;;;;;;;12.50;1.40;;;12.70;99.90;;;;;;6207236;23;20023;-75
2023/11/15 10:58:16;;;;;;;10.90;1.15;;;12.80;99.90;;;;;;6205625;23;20017;-75
2023/11/15 11:00:43;;;;;;;10.00;1.00;;;12.80;99.90;;;;;;6207049;23;20004;-75
2023/11/15 11:03:09;;;;;;;6.53;0.98;;;12.80;99.90;;;;;;6208411;23;20020;-75
2023/11/15 11:05:57;;;;;;;7.18;1.13;;;12.90;99.90;;;;;;6206375;23;20084;-75
2023/11/15 11:08:45;;;;;;;8.60;1.65;;;13.00;99.90;;;;;;6206010;23;20067;-74
2023/11/15 11:11:11;;;;;;;8.45;1.95;;;13.10;99.90;;;;;;6206408;23;20008;-76
2023/11/15 11:13:40;;;;;;;9.27;1.70;;;13.10;99.90;;;;;;6207371;23;20361;-76
2023/11/15 11:16:24;;;;;;;10.93;1.33;;;12.90;99.90;;;;;;6207207;23;20074;-76
2023/11/15 11:19:09;;;;;;;4.63;0.60;;;12.80;99.90;;;;;;6206666;23;20060;-76
2023/11/15 11:22:06;;;;;;;9.45;0.70;;;12.80;99.90;;;;;;6205809;23;20009;-76
2023/11/15 11:24:33;;;;;;;11.32;1.30;;;12.90;99.90;;;;;;6206929;23;20452;-76
2023/11/15 11:27:16;;;;;;;5.18;1.15;;;13.10;99.90;;;;;;6209739;23;20068;-77
2023/11/15 11:29:51;;;;;;;8.07;2.15;;;13.10;99.90;;;;;;6207408;23;20019;-76
2023/11/15 11:32:20;;;;;;;6.35;0.93;;;13.20;99.90;;;;;;6206199;23;20017;-75
2023/11/15 11:35:06;;;;;;;7.88;0.73;;;13.20;99.90;;;;;;6207566;23;20001;-76
2023/11/15 11:38:00;;;;;;;13.93;3.05;;;13.20;99.90;;;;;;6207776;23;20319;-76
2023/11/15 11:40:46;;;;;;;7.95;0.88;;;13.10;99.90;;;;;;6204763;23;20021;-75
2023/11/15 11:43:22;;;;;;;7.15;0.85;;;13.10;99.90;;;;;;6206028;23;20296;-76
2023/11/15 11:45:52;;;;;;;5.35;0.68;;;12.90;99.90;;;;;;6208759;23;20011;-78
2023/11/15 11:48:23;;;;;;;7.90;1.20;;;12.70;99.90;;;;;;6207489;23;20008;-77
2023/11/15 11:50:59;;;;;;;11.15;0.57;;;12.50;99.90;;;;;;6210496;23;20027;-76
2023/11/15 11:53:26;;;;;;;5.40;0.82;;;12.50;99.90;;;;;;6207108;23;20016;-77
2023/11/15 11:55:54;;;;;;;5.72;0.80;;;12.40;99.90;;;;;;6208713;23;20061;-77
2023/11/15 11:58:26;;;;;;;7.25;0.70;;;12.30;99.90;;;;;;6207618;23;20008;-78
2023/11/15 12:00:58;;;;;;;3.50;0.80;;;12.20;99.90;;;;;;6212001;23;20390;-76
2023/11/15 12:03:24;;;;;;;7.15;1.60;;;12.20;99.90;;;;;;6208473;23;20476;-76
2023/11/15 12:05:55;;;;;;;8.35;1.17;;;12.10;99.90;;;;;;6208814;23;20012;-76
2023/11/15 12:08:22;;;;;;;6.60;1.05;;;12.10;99.90;;;;;;6207559;23;20019;-77
2023/11/15 12:10:48;;;;;;;8.77;1.05;;;12.00;99.90;;;;;;6208875;23;20100;-77
2023/11/15 12:13:13;;;;;;;9.07;0.60;;;12.00;99.90;;;;;;6207277;23;20036;-75
2023/11/15 12:15:39;;;;;;;4.72;0.75;;;12.10;99.90;;;;;;6210839;23;20463;-76
2023/11/15 12:18:06;;;;;;;8.88;0.93;;;12.00;99.90;;;;;;6211614;23;20028;-78
2023/11/15 12:20:38;;;;;;;6.97;0.82;;;12.00;99.90;;;;;;6209771;23;20428;-75
2023/11/15 12:23:09;;;;;;;10.25;0.98;;;11.90;99.90;;;;;;6213207;23;20007;-77
2023/11/15 12:25:48;;;;;;;10.73;1.58;;;11.90;99.90;;;;;;6209888;23;20027;-75
2023/11/15 12:28:21;;;;;;;3.85;0.50;;;12.00;99.90;;;;;;6209588;23;20023;-77
2023/11/15 12:30:48;;;;;;;3.85;0.40;;;12.00;99.90;;;;;;6210976;23;20009;-78
2023/11/15 12:33:14;;;;;;;6.72;0.90;;;12.00;99.90;;;;;;6209330;23;20020;-78
2023/11/15 12:35:40;;;;;;;10.50;1.40;;;12.20;99.90;;;;;;6210301;23;20063;-76
2023/11/15 12:38:12;;;;;;;4.68;1.00;;;12.40;99.90;;;;;;6210992;23;20017;-77
2023/11/15 12:40:42;;;;;;;5.43;0.93;;;12.60;99.90;;;;;;6209377;23;20508;-77
2023/11/15 12:43:19;;;;;;;3.05;0.80;;;12.80;99.90;;;;;;6213283;23;20020;-77